Riverdance — C6CG3 — position and weather

sailwx.info

Track history (hours):
 
Tides and Currents Weather Stations Pressure Air Temp Water Temp Dewpoint Dewpoint Depression Visibility Wind Speed Wind Dir Waves Ship Positions

Riverdance

Operator: Crescent Marine Services Ltd

Last reported at 2017-Jul-21 12:48 UTC. Time now 2017-Jul-22 12:38 UTC.
Position N 52°06' W 010°49'.

Length 72 m; draft 5.8 m.

Type: Other ship. MMSI: 311000463.

Date/timePositionNaut miles runAvg speedWind from/ knotsBaromVisibWave heightAir tempDewpointWater temp
2017-Jul-21 12:48N 52°06' W 010°49'4 8.6
2017-Jul-21 12:18N 52°08' W 010°44'3 8.8
2017-Jul-21 12:00N 52°10' W 010°41'6 8.5
2017-Jul-21 11:21N 52°13' W 010°33'5 8.5
2017-Jul-21 10:42N 52°17' W 010°26'9 8.5
2017-Jul-21 09:42N 52°22' W 010°15'3 9.0
2017-Jul-21 09:22N 52°24' W 010°11'3 8.9
2017-Jul-21 09:00N 52°26' W 010°07'7 9.3
2017-Jul-21 08:14N 52°29' W 009°57'3 0.1
2017-Jul-19 18:27N 52°31' W 009°52'810.8
2017-Jul-19 17:42N 52°27' W 010°04'210.6
2017-Jul-19 17:29N 52°26' W 010°07'710.4
2017-Jul-19 16:48N 52°21' W 010°17'143 4.2
2017-Jul-18 06:58N 50°54' W 013°20'1 2.7
2017-Jul-18 06:29N 50°53' W 013°22'0 0.1
2017-Jul-18 05:38N 50°53' W 013°22'1 3.0
2017-Jul-18 05:11N 50°54' W 013°20'1 3.6
2017-Jul-18 04:59N 50°53' W 013°21'2 3.7
2017-Jul-18 04:29N 50°52' W 013°23'1 2.5
2017-Jul-18 03:56N 50°53' W 013°21'126 2.5
2017-Jul-16 00:34N 52°10' W 010°40'427.5
2017-Jul-16 00:26N 52°12' W 010°35'1 1.7
2017-Jul-15 23:57N 52°13' W 010°34'5 9.9
2017-Jul-15 23:26N 52°16' W 010°28'4 8.4
2017-Jul-15 22:56N 52°19' W 010°22'6 8.9
2017-Jul-15 22:18N 52°22' W 010°15'4 8.7
2017-Jul-15 21:51N 52°24' W 010°10'3 8.7
2017-Jul-15 21:29N 52°26' W 010°06'4 8.5
2017-Jul-15 20:59N 52°28' W 009°60'40 1.1
2017-Jul-14 06:49N 53°07' W 010°18'5 9.2
2017-Jul-14 06:19N 53°11' W 010°21'4 9.3
2017-Jul-14 05:56N 53°15' W 010°22'5 9.4
2017-Jul-14 05:26N 53°19' W 010°25'410.1
2017-Jul-14 05:00N 53°23' W 010°27'611.7
2017-Jul-14 04:30N 53°29' W 010°27'611.9
2017-Jul-14 04:00N 53°35' W 010°27'611.9
2017-Jul-14 03:30N 53°41' W 010°27'611.7
2017-Jul-14 02:59N 53°47' W 010°26'611.8
2017-Jul-14 02:30N 53°53' W 010°26'611.7
2017-Jul-14 02:00N 53°59' W 010°26'611.4
2017-Jul-14 01:29N 54°05' W 010°25'910.8
2017-Jul-14 00:40N 54°12' W 010°17'210.7
2017-Jul-14 00:29N 54°13' W 010°15'2210.7
2017-Jul-13 22:25N 54°32' W 009°54'2410.0
2017-Jul-13 20:00N 54°52' W 009°31'33 8.7
2017-Jul-13 16:10N 55°20' W 008°59'2 9.0
2017-Jul-13 15:56N 55°22' W 008°57'5 9.0
2017-Jul-13 15:26N 55°25' W 008°53'12 9.2
2017-Jul-13 14:10N 55°35' W 008°41'2 9.4
2017-Jul-13 13:57N 55°37' W 008°39'6 9.6
2017-Jul-13 13:18N 55°42' W 008°33'3 9.8
2017-Jul-13 12:59N 55°45' W 008°30'  
Track history (hours):
 
Tides and Currents Weather Stations Pressure Air Temp Water Temp Dewpoint Dewpoint Depression Visibility Wind Speed Wind Dir Waves Ship Positions

Riverdance

Operator: Crescent Marine Services Ltd

Last reported at 2017-Jul-21 12:48 UTC. Time now 2017-Jul-22 12:38 UTC.
Position N 52°06' W 010°49'.

Length 72 m; draft 5.8 m.

Type: Other ship. MMSI: 311000463.

Date/timePositionNaut miles runAvg speedWind from/ knotsBaromVisibWave heightAir tempDewpointWater temp
2017-Jul-21 12:48N 52°06' W 010°49'4 8.6
2017-Jul-21 12:18N 52°08' W 010°44'3 8.8
2017-Jul-21 12:00N 52°10' W 010°41'6 8.5
2017-Jul-21 11:21N 52°13' W 010°33'5 8.5
2017-Jul-21 10:42N 52°17' W 010°26'9 8.5
2017-Jul-21 09:42N 52°22' W 010°15'3 9.0
2017-Jul-21 09:22N 52°24' W 010°11'3 8.9
2017-Jul-21 09:00N 52°26' W 010°07'7 9.3
2017-Jul-21 08:14N 52°29' W 009°57'3 0.1
2017-Jul-19 18:27N 52°31' W 009°52'810.8
2017-Jul-19 17:42N 52°27' W 010°04'210.6
2017-Jul-19 17:29N 52°26' W 010°07'710.4
2017-Jul-19 16:48N 52°21' W 010°17'143 4.2
2017-Jul-18 06:58N 50°54' W 013°20'1 2.7
2017-Jul-18 06:29N 50°53' W 013°22'0 0.1
2017-Jul-18 05:38N 50°53' W 013°22'1 3.0
2017-Jul-18 05:11N 50°54' W 013°20'1 3.6
2017-Jul-18 04:59N 50°53' W 013°21'2 3.7
2017-Jul-18 04:29N 50°52' W 013°23'1 2.5
2017-Jul-18 03:56N 50°53' W 013°21'126 2.5
2017-Jul-16 00:34N 52°10' W 010°40'427.5
2017-Jul-16 00:26N 52°12' W 010°35'1 1.7
2017-Jul-15 23:57N 52°13' W 010°34'5 9.9
2017-Jul-15 23:26N 52°16' W 010°28'4 8.4
2017-Jul-15 22:56N 52°19' W 010°22'6 8.9
2017-Jul-15 22:18N 52°22' W 010°15'4 8.7
2017-Jul-15 21:51N 52°24' W 010°10'3 8.7
2017-Jul-15 21:29N 52°26' W 010°06'4 8.5
2017-Jul-15 20:59N 52°28' W 009°60'40 1.1
2017-Jul-14 06:49N 53°07' W 010°18'5 9.2
2017-Jul-14 06:19N 53°11' W 010°21'4 9.3
2017-Jul-14 05:56N 53°15' W 010°22'5 9.4
2017-Jul-14 05:26N 53°19' W 010°25'410.1
2017-Jul-14 05:00N 53°23' W 010°27'611.7
2017-Jul-14 04:30N 53°29' W 010°27'611.9
2017-Jul-14 04:00N 53°35' W 010°27'611.9
2017-Jul-14 03:30N 53°41' W 010°27'611.7
2017-Jul-14 02:59N 53°47' W 010°26'611.8
2017-Jul-14 02:30N 53°53' W 010°26'611.7
2017-Jul-14 02:00N 53°59' W 010°26'611.4
2017-Jul-14 01:29N 54°05' W 010°25'910.8
2017-Jul-14 00:40N 54°12' W 010°17'210.7
2017-Jul-14 00:29N 54°13' W 010°15'2210.7
2017-Jul-13 22:25N 54°32' W 009°54'2410.0
2017-Jul-13 20:00N 54°52' W 009°31'33 8.7
2017-Jul-13 16:10N 55°20' W 008°59'2 9.0
2017-Jul-13 15:56N 55°22' W 008°57'5 9.0
2017-Jul-13 15:26N 55°25' W 008°53'12 9.2
2017-Jul-13 14:10N 55°35' W 008°41'2 9.4
2017-Jul-13 13:57N 55°37' W 008°39'6 9.6
2017-Jul-13 13:18N 55°42' W 008°33'3 9.8
2017-Jul-13 12:59N 55°45' W 008°30'  

Dump ship's entire track history